sensor_id;sensor_type;location;lat;lon;timestamp;P1;durP1;ratioP1;P2;durP2;ratioP2
36315;SDS011;22343;50.820;2.666;2022-08-20T00:00:12;12.15;;;4.90;;
36315;SDS011;22343;50.820;2.666;2022-08-20T00:02:42;14.68;;;4.97;;
36315;SDS011;22343;50.820;2.666;2022-08-20T00:05:10;13.30;;;5.10;;
36315;SDS011;22343;50.820;2.666;2022-08-20T00:07:35;13.63;;;4.70;;
36315;SDS011;22343;50.820;2.666;2022-08-20T00:10:01;10.90;;;4.28;;
36315;SDS011;22343;50.820;2.666;2022-08-20T00:12:26;9.63;;;4.28;;
36315;SDS011;22343;50.820;2.666;2022-08-20T00:14:52;10.18;;;4.43;;
36315;SDS011;22343;50.820;2.666;2022-08-20T00:17:17;11.57;;;4.63;;
36315;SDS011;22343;50.820;2.666;2022-08-20T00:19:42;11.13;;;5.18;;
36315;SDS011;22343;50.820;2.666;2022-08-20T00:22:08;9.30;;;4.60;;
36315;SDS011;22343;50.820;2.666;2022-08-20T00:24:33;11.02;;;4.63;;
36315;SDS011;22343;50.820;2.666;2022-08-20T00:26:59;13.90;;;4.93;;
36315;SDS011;22343;50.820;2.666;2022-08-20T00:29:25;14.88;;;5.47;;
36315;SDS011;22343;50.820;2.666;2022-08-20T00:31:50;10.00;;;4.50;;
36315;SDS011;22343;50.820;2.666;2022-08-20T00:34:16;9.95;;;4.50;;
36315;SDS011;22343;50.820;2.666;2022-08-20T00:36:41;8.18;;;4.53;;
36315;SDS011;22343;50.820;2.666;2022-08-20T00:39:06;10.80;;;4.60;;
36315;SDS011;22343;50.820;2.666;2022-08-20T00:41:32;10.90;;;4.97;;
36315;SDS011;22343;50.820;2.666;2022-08-20T00:46:37;9.45;;;4.68;;
36315;SDS011;22343;50.820;2.666;2022-08-20T00:49:03;10.18;;;4.72;;
36315;SDS011;22343;50.820;2.666;2022-08-20T00:51:40;9.82;;;4.47;;
36315;SDS011;22343;50.820;2.666;2022-08-20T00:54:23;12.57;;;4.72;;
36315;SDS011;22343;50.820;2.666;2022-08-20T00:56:59;10.48;;;4.68;;
36315;SDS011;22343;50.820;2.666;2022-08-20T00:59:29;12.32;;;5.15;;
36315;SDS011;22343;50.820;2.666;2022-08-20T01:01:55;11.15;;;4.65;;
36315;SDS011;22343;50.820;2.666;2022-08-20T01:04:25;10.35;;;4.65;;
36315;SDS011;22343;50.820;2.666;2022-08-20T01:06:53;11.55;;;4.93;;
36315;SDS011;22343;50.820;2.666;2022-08-20T01:09:18;9.65;;;4.28;;
36315;SDS011;22343;50.820;2.666;2022-08-20T01:11:44;9.57;;;4.80;;
36315;SDS011;22343;50.820;2.666;2022-08-20T01:14:10;12.43;;;4.60;;
36315;SDS011;22343;50.820;2.666;2022-08-20T01:16:45;11.68;;;4.70;;
36315;SDS011;22343;50.820;2.666;2022-08-20T01:19:13;10.00;;;4.57;;
36315;SDS011;22343;50.820;2.666;2022-08-20T01:21:38;10.95;;;4.30;;
36315;SDS011;22343;50.820;2.666;2022-08-20T01:24:06;8.30;;;4.13;;
36315;SDS011;22343;50.820;2.666;2022-08-20T01:26:39;9.55;;;4.53;;
36315;SDS011;22343;50.820;2.666;2022-08-20T01:29:07;8.85;;;4.30;;
36315;SDS011;22343;50.820;2.666;2022-08-20T01:31:36;8.52;;;4.22;;
36315;SDS011;22343;50.820;2.666;2022-08-20T01:34:03;9.32;;;4.45;;
36315;SDS011;22343;50.820;2.666;2022-08-20T01:36:33;9.10;;;4.72;;
36315;SDS011;22343;50.820;2.666;2022-08-20T01:39:05;10.80;;;4.95;;
36315;SDS011;22343;50.820;2.666;2022-08-20T01:41:35;10.70;;;5.00;;
36315;SDS011;22343;50.820;2.666;2022-08-20T01:44:03;10.80;;;5.05;;
36315;SDS011;22343;50.820;2.666;2022-08-20T01:46:34;11.40;;;4.82;;
36315;SDS011;22343;50.820;2.666;2022-08-20T01:49:06;10.30;;;5.22;;
36315;SDS011;22343;50.820;2.666;2022-08-20T01:51:42;10.35;;;4.28;;
36315;SDS011;22343;50.820;2.666;2022-08-20T01:54:08;10.50;;;4.47;;
36315;SDS011;22343;50.820;2.666;2022-08-20T01:56:34;9.13;;;4.70;;
36315;SDS011;22343;50.820;2.666;2022-08-20T01:59:00;8.95;;;4.38;;
36315;SDS011;22343;50.820;2.666;2022-08-20T02:01:37;10.07;;;4.78;;
36315;SDS011;22343;50.820;2.666;2022-08-20T02:04:05;11.43;;;4.43;;
36315;SDS011;22343;50.820;2.666;2022-08-20T02:06:32;7.93;;;4.47;;
36315;SDS011;22343;50.820;2.666;2022-08-20T02:09:00;11.68;;;4.80;;
36315;SDS011;22343;50.820;2.666;2022-08-20T02:11:27;8.45;;;4.70;;
36315;SDS011;22343;50.820;2.666;2022-08-20T02:13:54;11.15;;;4.97;;
36315;SDS011;22343;50.820;2.666;2022-08-20T02:16:26;10.15;;;4.70;;
36315;SDS011;22343;50.820;2.666;2022-08-20T02:18:58;8.52;;;4.35;;
36315;SDS011;22343;50.820;2.666;2022-08-20T02:21:26;9.93;;;4.88;;
36315;SDS011;22343;50.820;2.666;2022-08-20T02:23:54;8.93;;;5.28;;
36315;SDS011;22343;50.820;2.666;2022-08-20T02:26:19;7.35;;;4.68;;
36315;SDS011;22343;50.820;2.666;2022-08-20T02:28:46;6.93;;;4.50;;
36315;SDS011;22343;50.820;2.666;2022-08-20T02:31:15;8.48;;;4.75;;
36315;SDS011;22343;50.820;2.666;2022-08-20T02:33:41;9.00;;;4.78;;
36315;SDS011;22343;50.820;2.666;2022-08-20T02:36:08;10.48;;;4.82;;
36315;SDS011;22343;50.820;2.666;2022-08-20T02:38:35;11.75;;;5.05;;
36315;SDS011;22343;50.820;2.666;2022-08-20T02:41:03;10.17;;;5.40;;
36315;SDS011;22343;50.820;2.666;2022-08-20T02:43:29;8.38;;;4.88;;
36315;SDS011;22343;50.820;2.666;2022-08-20T02:45:56;7.05;;;4.57;;
36315;SDS011;22343;50.820;2.666;2022-08-20T02:48:22;11.97;;;5.00;;
36315;SDS011;22343;50.820;2.666;2022-08-20T02:50:48;8.90;;;4.57;;
36315;SDS011;22343;50.820;2.666;2022-08-20T02:53:15;10.88;;;5.07;;
36315;SDS011;22343;50.820;2.666;2022-08-20T02:55:41;7.70;;;4.77;;
36315;SDS011;22343;50.820;2.666;2022-08-20T02:58:07;12.50;;;4.80;;
36315;SDS011;22343;50.820;2.666;2022-08-20T03:00:32;9.65;;;5.20;;
36315;SDS011;22343;50.820;2.666;2022-08-20T03:02:58;9.43;;;4.40;;
36315;SDS011;22343;50.820;2.666;2022-08-20T03:05:24;11.38;;;5.05;;
36315;SDS011;22343;50.820;2.666;2022-08-20T03:07:50;11.35;;;4.85;;
36315;SDS011;22343;50.820;2.666;2022-08-20T03:10:25;8.57;;;4.73;;
36315;SDS011;22343;50.820;2.666;2022-08-20T03:12:51;8.70;;;4.73;;
36315;SDS011;22343;50.820;2.666;2022-08-20T03:15:18;8.73;;;4.57;;
36315;SDS011;22343;50.820;2.666;2022-08-20T03:17:44;9.10;;;5.10;;
36315;SDS011;22343;50.820;2.666;2022-08-20T03:20:10;10.77;;;4.90;;
36315;SDS011;22343;50.820;2.666;2022-08-20T03:22:36;9.48;;;4.90;;
36315;SDS011;22343;50.820;2.666;2022-08-20T03:25:02;7.83;;;4.73;;
36315;SDS011;22343;50.820;2.666;2022-08-20T03:27:28;7.70;;;4.65;;
36315;SDS011;22343;50.820;2.666;2022-08-20T03:29:53;9.60;;;4.43;;
36315;SDS011;22343;50.820;2.666;2022-08-20T03:32:19;8.50;;;4.30;;
36315;SDS011;22343;50.820;2.666;2022-08-20T03:34:44;6.60;;;4.50;;
36315;SDS011;22343;50.820;2.666;2022-08-20T03:37:10;6.63;;;4.70;;
36315;SDS011;22343;50.820;2.666;2022-08-20T03:39:36;8.67;;;4.60;;
36315;SDS011;22343;50.820;2.666;2022-08-20T03:42:03;10.10;;;4.90;;
36315;SDS011;22343;50.820;2.666;2022-08-20T03:44:28;8.15;;;4.30;;
36315;SDS011;22343;50.820;2.666;2022-08-20T03:46:54;11.77;;;4.70;;
36315;SDS011;22343;50.820;2.666;2022-08-20T03:49:19;6.93;;;4.38;;
36315;SDS011;22343;50.820;2.666;2022-08-20T03:51:44;8.80;;;4.80;;
36315;SDS011;22343;50.820;2.666;2022-08-20T03:54:10;10.23;;;4.93;;
36315;SDS011;22343;50.820;2.666;2022-08-20T03:56:35;8.43;;;4.47;;
36315;SDS011;22343;50.820;2.666;2022-08-20T03:59:00;10.18;;;4.53;;
36315;SDS011;22343;50.820;2.666;2022-08-20T04:01:26;8.32;;;4.82;;
36315;SDS011;22343;50.820;2.666;2022-08-20T04:03:52;8.32;;;4.28;;
36315;SDS011;22343;50.820;2.666;2022-08-20T04:06:17;9.17;;;4.50;;
36315;SDS011;22343;50.820;2.666;2022-08-20T04:08:43;11.93;;;4.40;;
36315;SDS011;22343;50.820;2.666;2022-08-20T04:11:08;8.40;;;4.50;;
36315;SDS011;22343;50.820;2.666;2022-08-20T04:13:33;8.17;;;4.33;;
36315;SDS011;22343;50.820;2.666;2022-08-20T04:16:02;9.80;;;4.38;;
36315;SDS011;22343;50.820;2.666;2022-08-20T04:18:32;10.07;;;4.78;;
36315;SDS011;22343;50.820;2.666;2022-08-20T04:21:00;10.43;;;4.40;;
36315;SDS011;22343;50.820;2.666;2022-08-20T04:23:25;7.07;;;4.70;;
36315;SDS011;22343;50.820;2.666;2022-08-20T04:25:51;6.90;;;4.30;;
36315;SDS011;22343;50.820;2.666;2022-08-20T04:28:17;8.17;;;4.33;;
36315;SDS011;22343;50.820;2.666;2022-08-20T04:30:49;7.27;;;4.40;;
36315;SDS011;22343;50.820;2.666;2022-08-20T04:33:16;6.83;;;4.37;;
36315;SDS011;22343;50.820;2.666;2022-08-20T04:35:42;12.50;;;4.63;;
36315;SDS011;22343;50.820;2.666;2022-08-20T04:38:08;9.52;;;4.60;;
36315;SDS011;22343;50.820;2.666;2022-08-20T04:40:34;7.97;;;4.50;;
36315;SDS011;22343;50.820;2.666;2022-08-20T04:43:22;7.35;;;4.88;;
36315;SDS011;22343;50.820;2.666;2022-08-20T04:45:55;7.97;;;4.60;;
36315;SDS011;22343;50.820;2.666;2022-08-20T04:48:22;6.87;;;4.20;;
36315;SDS011;22343;50.820;2.666;2022-08-20T04:50:48;5.27;;;4.13;;
36315;SDS011;22343;50.820;2.666;2022-08-20T04:53:15;9.43;;;4.55;;
36315;SDS011;22343;50.820;2.666;2022-08-20T04:55:42;9.52;;;4.40;;
36315;SDS011;22343;50.820;2.666;2022-08-20T04:58:09;6.87;;;4.00;;
36315;SDS011;22343;50.820;2.666;2022-08-20T05:00:43;6.13;;;4.33;;
36315;SDS011;22343;50.820;2.666;2022-08-20T05:03:10;8.00;;;4.27;;
36315;SDS011;22343;50.820;2.666;2022-08-20T05:05:36;7.70;;;4.40;;
36315;SDS011;22343;50.820;2.666;2022-08-20T05:08:01;5.23;;;4.00;;
36315;SDS011;22343;50.820;2.666;2022-08-20T05:10:27;6.97;;;4.60;;
36315;SDS011;22343;50.820;2.666;2022-08-20T05:12:52;7.60;;;4.63;;
36315;SDS011;22343;50.820;2.666;2022-08-20T05:15:18;9.97;;;4.80;;
36315;SDS011;22343;50.820;2.666;2022-08-20T05:17:44;7.30;;;4.80;;
36315;SDS011;22343;50.820;2.666;2022-08-20T05:20:11;10.40;;;4.77;;
36315;SDS011;22343;50.820;2.666;2022-08-20T05:22:40;11.00;;;5.13;;
36315;SDS011;22343;50.820;2.666;2022-08-20T05:25:06;9.13;;;4.70;;
36315;SDS011;22343;50.820;2.666;2022-08-20T05:27:31;7.97;;;4.70;;
36315;SDS011;22343;50.820;2.666;2022-08-20T05:30:00;11.90;;;4.87;;
36315;SDS011;22343;50.820;2.666;2022-08-20T05:32:31;7.83;;;4.70;;
36315;SDS011;22343;50.820;2.666;2022-08-20T05:34:57;8.30;;;4.40;;
36315;SDS011;22343;50.820;2.666;2022-08-20T05:37:22;7.80;;;4.87;;
36315;SDS011;22343;50.820;2.666;2022-08-20T05:39:48;7.83;;;4.50;;
36315;SDS011;22343;50.820;2.666;2022-08-20T05:42:13;7.33;;;4.40;;
36315;SDS011;22343;50.820;2.666;2022-08-20T05:44:39;6.63;;;4.37;;
36315;SDS011;22343;50.820;2.666;2022-08-20T05:47:04;8.40;;;4.60;;
36315;SDS011;22343;50.820;2.666;2022-08-20T05:49:30;7.07;;;4.30;;
36315;SDS011;22343;50.820;2.666;2022-08-20T05:51:55;5.97;;;3.80;;
36315;SDS011;22343;50.820;2.666;2022-08-20T05:54:21;10.43;;;3.97;;
36315;SDS011;22343;50.820;2.666;2022-08-20T05:56:49;6.67;;;4.00;;
36315;SDS011;22343;50.820;2.666;2022-08-20T05:59:15;10.73;;;3.97;;
36315;SDS011;22343;50.820;2.666;2022-08-20T06:01:41;7.33;;;3.93;;
36315;SDS011;22343;50.820;2.666;2022-08-20T06:04:07;6.38;;;3.83;;
36315;SDS011;22343;50.820;2.666;2022-08-20T06:06:48;7.05;;;3.90;;
36315;SDS011;22343;50.820;2.666;2022-08-20T06:09:19;6.47;;;4.00;;
36315;SDS011;22343;50.820;2.666;2022-08-20T06:11:45;7.47;;;4.20;;
36315;SDS011;22343;50.820;2.666;2022-08-20T06:14:10;5.57;;;3.73;;
36315;SDS011;22343;50.820;2.666;2022-08-20T06:16:36;7.20;;;3.70;;
36315;SDS011;22343;50.820;2.666;2022-08-20T06:19:01;6.07;;;3.50;;
36315;SDS011;22343;50.820;2.666;2022-08-20T06:21:27;7.72;;;3.78;;
36315;SDS011;22343;50.820;2.666;2022-08-20T06:23:52;6.97;;;4.10;;
36315;SDS011;22343;50.820;2.666;2022-08-20T06:26:18;7.75;;;3.30;;
36315;SDS011;22343;50.820;2.666;2022-08-20T06:28:43;7.65;;;3.50;;
36315;SDS011;22343;50.820;2.666;2022-08-20T06:31:08;7.35;;;3.40;;
36315;SDS011;22343;50.820;2.666;2022-08-20T06:33:35;6.95;;;3.42;;
36315;SDS011;22343;50.820;2.666;2022-08-20T06:36:00;4.80;;;3.00;;
36315;SDS011;22343;50.820;2.666;2022-08-20T06:38:26;6.00;;;3.03;;
36315;SDS011;22343;50.820;2.666;2022-08-20T06:40:51;6.38;;;3.38;;
36315;SDS011;22343;50.820;2.666;2022-08-20T06:43:17;4.53;;;2.90;;
36315;SDS011;22343;50.820;2.666;2022-08-20T06:45:42;7.35;;;3.20;;
36315;SDS011;22343;50.820;2.666;2022-08-20T06:48:09;6.22;;;2.70;;
36315;SDS011;22343;50.820;2.666;2022-08-20T06:50:37;4.88;;;3.03;;
36315;SDS011;22343;50.820;2.666;2022-08-20T06:53:05;6.97;;;3.38;;
36315;SDS011;22343;50.820;2.666;2022-08-20T06:55:32;8.05;;;3.38;;
36315;SDS011;22343;50.820;2.666;2022-08-20T06:57:59;6.68;;;2.97;;
36315;SDS011;22343;50.820;2.666;2022-08-20T07:00:25;5.47;;;3.00;;
36315;SDS011;22343;50.820;2.666;2022-08-20T07:02:52;5.90;;;3.10;;
36315;SDS011;22343;50.820;2.666;2022-08-20T07:05:17;8.18;;;3.00;;
36315;SDS011;22343;50.820;2.666;2022-08-20T07:07:44;5.10;;;2.78;;
36315;SDS011;22343;50.820;2.666;2022-08-20T07:10:11;4.53;;;2.85;;
36315;SDS011;22343;50.820;2.666;2022-08-20T07:12:38;6.18;;;2.78;;
36315;SDS011;22343;50.820;2.666;2022-08-20T07:15:04;6.85;;;3.00;;
36315;SDS011;22343;50.820;2.666;2022-08-20T07:17:31;7.45;;;3.08;;
36315;SDS011;22343;50.820;2.666;2022-08-20T07:19:56;5.57;;;2.92;;
36315;SDS011;22343;50.820;2.666;2022-08-20T07:22:22;8.65;;;3.10;;
36315;SDS011;22343;50.820;2.666;2022-08-20T07:24:48;4.93;;;2.78;;
36315;SDS011;22343;50.820;2.666;2022-08-20T07:27:18;6.00;;;3.00;;
36315;SDS011;22343;50.820;2.666;2022-08-20T07:29:44;6.80;;;3.00;;
36315;SDS011;22343;50.820;2.666;2022-08-20T07:32:28;5.88;;;2.90;;
36315;SDS011;22343;50.820;2.666;2022-08-20T07:35:04;6.40;;;2.92;;
36315;SDS011;22343;50.820;2.666;2022-08-20T07:37:36;7.75;;;3.08;;
36315;SDS011;22343;50.820;2.666;2022-08-20T07:40:10;6.57;;;2.90;;
36315;SDS011;22343;50.820;2.666;2022-08-20T07:42:39;7.00;;;3.10;;
36315;SDS011;22343;50.820;2.666;2022-08-20T07:45:05;7.10;;;2.80;;
36315;SDS011;22343;50.820;2.666;2022-08-20T07:47:34;6.28;;;2.83;;
36315;SDS011;22343;50.820;2.666;2022-08-20T07:50:00;6.25;;;2.95;;
36315;SDS011;22343;50.820;2.666;2022-08-20T07:52:26;4.97;;;2.70;;
36315;SDS011;22343;50.820;2.666;2022-08-20T07:54:52;5.47;;;2.80;;
36315;SDS011;22343;50.820;2.666;2022-08-20T07:57:17;7.85;;;3.17;;
36315;SDS011;22343;50.820;2.666;2022-08-20T07:59:43;7.15;;;2.95;;
36315;SDS011;22343;50.820;2.666;2022-08-20T08:02:09;5.25;;;2.63;;
36315;SDS011;22343;50.820;2.666;2022-08-20T08:04:34;6.85;;;2.95;;
36315;SDS011;22343;50.820;2.666;2022-08-20T08:07:01;5.40;;;2.67;;
36315;SDS011;22343;50.820;2.666;2022-08-20T08:09:26;4.65;;;2.55;;
36315;SDS011;22343;50.820;2.666;2022-08-20T08:11:52;6.57;;;2.72;;
36315;SDS011;22343;50.820;2.666;2022-08-20T08:14:22;5.72;;;2.70;;
36315;SDS011;22343;50.820;2.666;2022-08-20T08:16:55;5.38;;;2.35;;
36315;SDS011;22343;50.820;2.666;2022-08-20T08:19:22;5.43;;;2.65;;
36315;SDS011;22343;50.820;2.666;2022-08-20T08:21:49;7.30;;;2.70;;
36315;SDS011;22343;50.820;2.666;2022-08-20T08:24:14;5.82;;;2.47;;
36315;SDS011;22343;50.820;2.666;2022-08-20T08:26:43;7.00;;;2.88;;
36315;SDS011;22343;50.820;2.666;2022-08-20T08:29:11;5.85;;;2.47;;
36315;SDS011;22343;50.820;2.666;2022-08-20T08:31:37;6.15;;;2.55;;
36315;SDS011;22343;50.820;2.666;2022-08-20T08:34:06;5.45;;;2.20;;
36315;SDS011;22343;50.820;2.666;2022-08-20T08:36:33;4.95;;;2.50;;
36315;SDS011;22343;50.820;2.666;2022-08-20T08:39:03;5.63;;;2.30;;
36315;SDS011;22343;50.820;2.666;2022-08-20T08:41:32;4.00;;;2.25;;
36315;SDS011;22343;50.820;2.666;2022-08-20T08:44:11;19.15;;;12.73;;
36315;SDS011;22343;50.820;2.666;2022-08-20T08:46:50;6.05;;;2.63;;
36315;SDS011;22343;50.820;2.666;2022-08-20T08:49:22;5.65;;;2.47;;
36315;SDS011;22343;50.820;2.666;2022-08-20T08:51:55;6.25;;;3.10;;
36315;SDS011;22343;50.820;2.666;2022-08-20T08:54:23;7.18;;;2.60;;
36315;SDS011;22343;50.820;2.666;2022-08-20T08:56:56;5.75;;;2.42;;
36315;SDS011;22343;50.820;2.666;2022-08-20T08:59:26;4.85;;;2.17;;
36315;SDS011;22343;50.820;2.666;2022-08-20T09:01:55;4.28;;;2.08;;
36315;SDS011;22343;50.820;2.666;2022-08-20T09:04:29;4.22;;;2.50;;
36315;SDS011;22343;50.820;2.666;2022-08-20T09:06:58;4.07;;;2.10;;
36315;SDS011;22343;50.820;2.666;2022-08-20T09:09:28;4.00;;;2.33;;
36315;SDS011;22343;50.820;2.666;2022-08-20T09:12:19;5.00;;;2.17;;
36315;SDS011;22343;50.820;2.666;2022-08-20T09:14:46;5.35;;;2.10;;
36315;SDS011;22343;50.820;2.666;2022-08-20T09:17:14;6.13;;;2.08;;
36315;SDS011;22343;50.820;2.666;2022-08-20T09:19:42;5.50;;;2.00;;
36315;SDS011;22343;50.820;2.666;2022-08-20T09:22:08;5.07;;;2.30;;
36315;SDS011;22343;50.820;2.666;2022-08-20T09:24:36;4.43;;;2.10;;
36315;SDS011;22343;50.820;2.666;2022-08-20T09:27:03;4.38;;;2.10;;
36315;SDS011;22343;50.820;2.666;2022-08-20T09:29:29;9.38;;;2.60;;
36315;SDS011;22343;50.820;2.666;2022-08-20T09:32:15;4.10;;;2.13;;
36315;SDS011;22343;50.820;2.666;2022-08-20T09:34:46;10.27;;;2.65;;
36315;SDS011;22343;50.820;2.666;2022-08-20T09:37:14;4.70;;;2.30;;
36315;SDS011;22343;50.820;2.666;2022-08-20T09:39:41;4.07;;;2.00;;
36315;SDS011;22343;50.820;2.666;2022-08-20T09:42:14;20.98;;;3.80;;
36315;SDS011;22343;50.820;2.666;2022-08-20T09:44:45;5.43;;;2.00;;
36315;SDS011;22343;50.820;2.666;2022-08-20T09:47:12;4.47;;;2.10;;
36315;SDS011;22343;50.820;2.666;2022-08-20T09:49:39;4.15;;;1.90;;
36315;SDS011;22343;50.820;2.666;2022-08-20T09:52:07;4.88;;;2.00;;
36315;SDS011;22343;50.820;2.666;2022-08-20T09:54:35;4.43;;;2.17;;
36315;SDS011;22343;50.820;2.666;2022-08-20T09:57:03;5.05;;;2.00;;
36315;SDS011;22343;50.820;2.666;2022-08-20T09:59:32;3.25;;;2.15;;
36315;SDS011;22343;50.820;2.666;2022-08-20T10:01:59;6.05;;;2.17;;
36315;SDS011;22343;50.820;2.666;2022-08-20T10:04:26;13.55;;;2.50;;
36315;SDS011;22343;50.820;2.666;2022-08-20T10:06:53;4.85;;;2.25;;
36315;SDS011;22343;50.820;2.666;2022-08-20T10:09:20;4.20;;;2.10;;
36315;SDS011;22343;50.820;2.666;2022-08-20T10:11:45;3.80;;;2.10;;
36315;SDS011;22343;50.820;2.666;2022-08-20T10:14:12;5.60;;;2.10;;
36315;SDS011;22343;50.820;2.666;2022-08-20T10:16:38;3.65;;;2.30;;
36315;SDS011;22343;50.820;2.666;2022-08-20T10:19:05;4.63;;;2.30;;
36315;SDS011;22343;50.820;2.666;2022-08-20T10:21:32;6.43;;;2.20;;
36315;SDS011;22343;50.820;2.666;2022-08-20T10:23:59;7.10;;;2.40;;
36315;SDS011;22343;50.820;2.666;2022-08-20T10:26:24;8.15;;;2.60;;
36315;SDS011;22343;50.820;2.666;2022-08-20T10:28:51;4.53;;;2.03;;
36315;SDS011;22343;50.820;2.666;2022-08-20T10:31:18;4.30;;;2.10;;
36315;SDS011;22343;50.820;2.666;2022-08-20T10:33:44;6.25;;;2.58;;
36315;SDS011;22343;50.820;2.666;2022-08-20T10:36:12;6.25;;;2.03;;
36315;SDS011;22343;50.820;2.666;2022-08-20T10:38:41;7.20;;;2.40;;
36315;SDS011;22343;50.820;2.666;2022-08-20T10:41:08;3.20;;;2.00;;
36315;SDS011;22343;50.820;2.666;2022-08-20T10:43:35;4.15;;;2.03;;
36315;SDS011;22343;50.820;2.666;2022-08-20T10:46:00;2.88;;;1.98;;
36315;SDS011;22343;50.820;2.666;2022-08-20T10:48:27;8.13;;;3.00;;
36315;SDS011;22343;50.820;2.666;2022-08-20T10:50:54;6.63;;;2.40;;
36315;SDS011;22343;50.820;2.666;2022-08-20T10:53:21;6.65;;;2.20;;
36315;SDS011;22343;50.820;2.666;2022-08-20T10:55:48;5.75;;;2.80;;
36315;SDS011;22343;50.820;2.666;2022-08-20T10:58:14;4.78;;;2.20;;
36315;SDS011;22343;50.820;2.666;2022-08-20T11:00:41;4.63;;;2.38;;
36315;SDS011;22343;50.820;2.666;2022-08-20T11:03:07;5.55;;;2.33;;
36315;SDS011;22343;50.820;2.666;2022-08-20T11:05:34;5.50;;;2.17;;
36315;SDS011;22343;50.820;2.666;2022-08-20T11:08:02;3.78;;;2.20;;
36315;SDS011;22343;50.820;2.666;2022-08-20T11:10:29;3.88;;;1.90;;
36315;SDS011;22343;50.820;2.666;2022-08-20T11:13:00;3.63;;;2.00;;
36315;SDS011;22343;50.820;2.666;2022-08-20T11:15:27;3.78;;;2.17;;
36315;SDS011;22343;50.820;2.666;2022-08-20T11:17:52;3.95;;;1.88;;
36315;SDS011;22343;50.820;2.666;2022-08-20T11:20:22;4.30;;;2.00;;
36315;SDS011;22343;50.820;2.666;2022-08-20T11:22:52;3.95;;;1.83;;
36315;SDS011;22343;50.820;2.666;2022-08-20T11:25:19;4.60;;;2.25;;
36315;SDS011;22343;50.820;2.666;2022-08-20T11:27:47;4.63;;;2.10;;
36315;SDS011;22343;50.820;2.666;2022-08-20T11:30:18;4.85;;;2.10;;
36315;SDS011;22343;50.820;2.666;2022-08-20T11:32:46;3.25;;;2.10;;
36315;SDS011;22343;50.820;2.666;2022-08-20T11:35:11;3.70;;;1.95;;
36315;SDS011;22343;50.820;2.666;2022-08-20T11:37:38;3.13;;;2.00;;
36315;SDS011;22343;50.820;2.666;2022-08-20T11:40:04;3.97;;;2.30;;
36315;SDS011;22343;50.820;2.666;2022-08-20T11:42:32;6.90;;;2.40;;
36315;SDS011;22343;50.820;2.666;2022-08-20T11:44:57;3.75;;;2.20;;
36315;SDS011;22343;50.820;2.666;2022-08-20T11:47:24;7.63;;;2.38;;
36315;SDS011;22343;50.820;2.666;2022-08-20T11:49:55;7.78;;;2.50;;
36315;SDS011;22343;50.820;2.666;2022-08-20T11:52:24;4.15;;;2.10;;
36315;SDS011;22343;50.820;2.666;2022-08-20T11:54:50;3.70;;;2.10;;
36315;SDS011;22343;50.820;2.666;2022-08-20T11:57:22;3.80;;;2.28;;
36315;SDS011;22343;50.820;2.666;2022-08-20T11:59:50;5.15;;;2.50;;
36315;SDS011;22343;50.820;2.666;2022-08-20T12:02:18;3.25;;;2.15;;
36315;SDS011;22343;50.820;2.666;2022-08-20T12:04:43;4.47;;;2.30;;
36315;SDS011;22343;50.820;2.666;2022-08-20T12:07:13;4.28;;;2.20;;
36315;SDS011;22343;50.820;2.666;2022-08-20T12:09:44;6.37;;;2.40;;
36315;SDS011;22343;50.820;2.666;2022-08-20T12:12:10;4.10;;;2.28;;
36315;SDS011;22343;50.820;2.666;2022-08-20T12:14:36;4.80;;;2.10;;
36315;SDS011;22343;50.820;2.666;2022-08-20T12:17:11;6.10;;;2.30;;
36315;SDS011;22343;50.820;2.666;2022-08-20T12:19:44;4.63;;;2.28;;
36315;SDS011;22343;50.820;2.666;2022-08-20T12:22:09;4.80;;;2.33;;
36315;SDS011;22343;50.820;2.666;2022-08-20T12:24:35;5.25;;;2.40;;
36315;SDS011;22343;50.820;2.666;2022-08-20T12:27:35;5.45;;;2.53;;
36315;SDS011;22343;50.820;2.666;2022-08-20T12:29:55;5.25;;;2.63;;
36315;SDS011;22343;50.820;2.666;2022-08-20T12:32:23;6.78;;;2.60;;
36315;SDS011;22343;50.820;2.666;2022-08-20T12:34:49;5.38;;;2.80;;
36315;SDS011;22343;50.820;2.666;2022-08-20T12:37:16;6.57;;;2.35;;
36315;SDS011;22343;50.820;2.666;2022-08-20T12:39:44;5.82;;;2.65;;
36315;SDS011;22343;50.820;2.666;2022-08-20T12:42:11;5.03;;;2.47;;
36315;SDS011;22343;50.820;2.666;2022-08-20T12:44:37;5.70;;;2.50;;
36315;SDS011;22343;50.820;2.666;2022-08-20T12:49:31;5.10;;;2.58;;
36315;SDS011;22343;50.820;2.666;2022-08-20T12:51:56;5.47;;;2.80;;
36315;SDS011;22343;50.820;2.666;2022-08-20T12:54:22;3.97;;;2.42;;
36315;SDS011;22343;50.820;2.666;2022-08-20T12:56:47;5.15;;;2.60;;
36315;SDS011;22343;50.820;2.666;2022-08-20T12:59:12;7.60;;;2.70;;
36315;SDS011;22343;50.820;2.666;2022-08-20T13:01:38;6.13;;;2.80;;
36315;SDS011;22343;50.820;2.666;2022-08-20T13:04:03;4.38;;;2.50;;
36315;SDS011;22343;50.820;2.666;2022-08-20T13:06:29;7.30;;;2.80;;
36315;SDS011;22343;50.820;2.666;2022-08-20T13:08:54;5.13;;;2.80;;
36315;SDS011;22343;50.820;2.666;2022-08-20T13:11:22;5.85;;;2.75;;
36315;SDS011;22343;50.820;2.666;2022-08-20T13:13:50;5.22;;;2.60;;
36315;SDS011;22343;50.820;2.666;2022-08-20T13:16:16;5.55;;;2.95;;
36315;SDS011;22343;50.820;2.666;2022-08-20T13:18:43;4.60;;;2.45;;
36315;SDS011;22343;50.820;2.666;2022-08-20T13:21:11;5.45;;;2.45;;
36315;SDS011;22343;50.820;2.666;2022-08-20T13:23:38;6.05;;;2.80;;
36315;SDS011;22343;50.820;2.666;2022-08-20T13:26:03;5.55;;;2.70;;
36315;SDS011;22343;50.820;2.666;2022-08-20T13:28:29;6.07;;;3.03;;
36315;SDS011;22343;50.820;2.666;2022-08-20T13:30:55;4.70;;;2.50;;
36315;SDS011;22343;50.820;2.666;2022-08-20T13:33:21;5.65;;;2.67;;
36315;SDS011;22343;50.820;2.666;2022-08-20T13:35:46;4.82;;;2.60;;
36315;SDS011;22343;50.820;2.666;2022-08-20T13:38:12;4.50;;;2.40;;
36315;SDS011;22343;50.820;2.666;2022-08-20T13:40:39;4.30;;;2.50;;
36315;SDS011;22343;50.820;2.666;2022-08-20T13:43:05;3.97;;;2.33;;
36315;SDS011;22343;50.820;2.666;2022-08-20T13:45:30;4.18;;;2.50;;
36315;SDS011;22343;50.820;2.666;2022-08-20T13:47:56;6.13;;;3.15;;
36315;SDS011;22343;50.820;2.666;2022-08-20T13:50:22;4.72;;;3.10;;
36315;SDS011;22343;50.820;2.666;2022-08-20T13:52:49;4.28;;;2.40;;
36315;SDS011;22343;50.820;2.666;2022-08-20T13:55:17;6.43;;;2.58;;
36315;SDS011;22343;50.820;2.666;2022-08-20T13:57:44;5.80;;;2.50;;
36315;SDS011;22343;50.820;2.666;2022-08-20T14:00:13;5.70;;;2.90;;
36315;SDS011;22343;50.820;2.666;2022-08-20T14:02:43;5.78;;;2.30;;
36315;SDS011;22343;50.820;2.666;2022-08-20T14:05:10;5.35;;;2.50;;
36315;SDS011;22343;50.820;2.666;2022-08-20T14:07:35;5.18;;;2.33;;
36315;SDS011;22343;50.820;2.666;2022-08-20T14:10:20;5.35;;;2.60;;
36315;SDS011;22343;50.820;2.666;2022-08-20T14:12:58;7.40;;;3.17;;
36315;SDS011;22343;50.820;2.666;2022-08-20T14:15:25;6.30;;;2.75;;
36315;SDS011;22343;50.820;2.666;2022-08-20T14:17:52;5.10;;;2.50;;
36315;SDS011;22343;50.820;2.666;2022-08-20T14:20:21;5.78;;;2.47;;
36315;SDS011;22343;50.820;2.666;2022-08-20T14:22:52;5.97;;;2.38;;
36315;SDS011;22343;50.820;2.666;2022-08-20T14:25:20;4.55;;;2.25;;
36315;SDS011;22343;50.820;2.666;2022-08-20T14:27:47;4.60;;;2.50;;
36315;SDS011;22343;50.820;2.666;2022-08-20T14:30:14;5.60;;;2.53;;
36315;SDS011;22343;50.820;2.666;2022-08-20T14:32:42;4.68;;;2.13;;
36315;SDS011;22343;50.820;2.666;2022-08-20T14:35:10;5.18;;;2.80;;
36315;SDS011;22343;50.820;2.666;2022-08-20T14:37:37;5.25;;;2.42;;
36315;SDS011;22343;50.820;2.666;2022-08-20T14:40:08;4.15;;;2.50;;
36315;SDS011;22343;50.820;2.666;2022-08-20T14:42:37;8.00;;;2.53;;
36315;SDS011;22343;50.820;2.666;2022-08-20T14:45:06;6.57;;;2.30;;
36315;SDS011;22343;50.820;2.666;2022-08-20T14:47:34;4.80;;;2.50;;
36315;SDS011;22343;50.820;2.666;2022-08-20T14:50:02;6.55;;;2.70;;
36315;SDS011;22343;50.820;2.666;2022-08-20T14:52:30;3.53;;;2.08;;